createdAt,value
2023-05-13T00:02:08.452Z,12.03
2023-05-13T00:07:01.771Z,11.65
2023-05-13T00:11:55.016Z,11.57
2023-05-13T00:16:49.691Z,11.19
2023-05-13T00:21:42.934Z,11.28
2023-05-13T00:26:36.223Z,11.22
2023-05-13T00:31:29.549Z,11.02
2023-05-13T00:36:24.309Z,10.69
2023-05-13T00:41:19.691Z,10.29
2023-05-13T00:46:13.060Z,10.72
2023-05-13T00:51:08.472Z,10.64
2023-05-13T00:56:03.178Z,10.52
2023-05-13T01:01:14.923Z,10.32
2023-05-13T01:06:13.830Z,9.22
2023-05-13T01:11:12.319Z,10.02
2023-05-13T01:16:12.014Z,10.01
2023-05-13T01:21:07.410Z,9.59
2023-05-13T01:26:02.037Z,9.88
2023-05-13T01:30:58.612Z,9.86
2023-05-13T01:35:54.258Z,9.73
2023-05-13T01:40:49.007Z,9.29
2023-05-13T01:45:44.108Z,8.67
2023-05-13T01:50:38.979Z,9.29
2023-05-13T01:55:33.047Z,8.98
2023-05-13T02:00:28.519Z,9.28
2023-05-13T02:05:24.430Z,9.38
2023-05-13T02:10:18.046Z,9.05
2023-05-13T02:15:12.121Z,9.32
2023-05-13T02:20:06.213Z,9.12
2023-05-13T02:25:00.846Z,9.11
2023-05-13T02:29:54.113Z,9.15
2023-05-13T02:34:47.464Z,9.15
2023-05-13T02:39:40.620Z,9.00
2023-05-13T02:44:35.649Z,8.99
2023-05-13T02:49:29.038Z,9.72
2023-05-13T02:54:22.315Z,10.64
2023-05-13T02:59:15.631Z,11.14
2023-05-13T03:04:10.273Z,11.22
2023-05-13T03:09:03.442Z,10.94
2023-05-13T03:13:56.590Z,10.27
2023-05-13T03:18:49.898Z,9.59
2023-05-13T03:23:46.119Z,9.85
2023-05-13T03:28:39.343Z,9.66
2023-05-13T03:33:32.980Z,9.56
2023-05-13T03:38:26.499Z,9.53
2023-05-13T03:43:25.004Z,9.58
2023-05-13T03:48:23.501Z,9.48
2023-05-13T03:53:17.498Z,9.58
2023-05-13T03:58:15.557Z,9.01
2023-05-13T04:03:11.095Z,9.13
2023-05-13T04:08:05.201Z,9.79
2023-05-13T04:12:58.800Z,9.03
2023-05-13T04:17:54.033Z,9.95
2023-05-13T04:22:49.990Z,10.21
2023-05-13T04:27:43.324Z,10.13
2023-05-13T04:32:45.376Z,10.44
2023-05-13T04:37:39.671Z,10.33
2023-05-13T04:42:37.451Z,10.55
2023-05-13T04:47:31.035Z,10.81
2023-05-13T04:52:25.813Z,10.20
2023-05-13T04:57:19.176Z,9.73
2023-05-13T05:02:14.535Z,11.48
2023-05-13T05:07:08.121Z,11.82
2023-05-13T05:12:01.441Z,12.04
2023-05-13T05:16:58.026Z,12.40
2023-05-13T05:21:53.116Z,12.58
2023-05-13T05:26:46.622Z,12.91
2023-05-13T05:31:41.766Z,13.16
2023-05-13T05:36:38.074Z,13.45
2023-05-13T05:41:33.850Z,13.90
2023-05-13T05:46:27.988Z,14.05
2023-05-13T05:51:21.748Z,14.29
2023-05-13T05:56:15.487Z,14.53
2023-05-13T06:01:12.455Z,15.14
2023-05-13T06:06:06.261Z,15.42
2023-05-13T06:11:00.696Z,15.24
2023-05-13T06:15:54.156Z,15.95
2023-05-13T06:20:48.818Z,16.22
2023-05-13T06:25:44.284Z,16.40
2023-05-13T06:30:38.786Z,16.72
2023-05-13T06:35:32.820Z,16.33
2023-05-13T06:40:31.020Z,16.81
2023-05-13T06:45:26.027Z,16.73
2023-05-13T06:50:20.352Z,17.19
2023-05-13T06:55:14.373Z,17.53
2023-05-13T07:00:09.989Z,17.14
2023-05-13T07:05:03.815Z,17.91
2023-05-13T07:09:57.114Z,17.55
2023-05-13T07:14:50.491Z,18.17
2023-05-13T07:19:45.751Z,17.91
2023-05-13T07:24:39.050Z,18.06
2023-05-13T07:29:32.903Z,18.67
2023-05-13T07:34:27.212Z,18.39
2023-05-13T07:39:22.070Z,18.44
2023-05-13T07:44:15.957Z,18.28
2023-05-13T07:49:09.294Z,18.50
2023-05-13T07:54:02.549Z,17.95
2023-05-13T07:58:57.376Z,18.98
2023-05-13T08:03:50.991Z,19.06
2023-05-13T08:08:44.513Z,18.94
2023-05-13T08:13:38.668Z,19.27
2023-05-13T08:18:33.412Z,19.05
2023-05-13T08:23:40.468Z,18.98
2023-05-13T08:28:36.822Z,18.90
2023-05-13T08:33:30.657Z,18.79
2023-05-13T08:38:25.524Z,18.68
2023-05-13T08:43:20.639Z,18.52
2023-05-13T08:48:16.929Z,17.99
2023-05-13T08:53:13.402Z,18.02
2023-05-13T08:58:11.092Z,17.88
2023-05-13T09:03:04.604Z,18.47
2023-05-13T09:07:58.583Z,18.34
2023-05-13T09:12:54.076Z,18.78
2023-05-13T09:17:54.541Z,18.47
2023-05-13T09:22:48.729Z,19.31
2023-05-13T09:27:44.669Z,19.42
2023-05-13T09:32:41.212Z,19.58
2023-05-13T09:37:36.522Z,19.68
2023-05-13T09:42:30.105Z,19.57
2023-05-13T09:47:25.812Z,20.11
2023-05-13T09:52:25.062Z,20.55
2023-05-13T09:57:19.877Z,20.82
2023-05-13T10:02:16.754Z,20.75
2023-05-13T10:07:23.760Z,20.69
2023-05-13T10:23:36.084Z,20.97
2023-05-13T10:28:31.039Z,20.97
2023-05-13T10:33:24.822Z,21.38
2023-05-13T10:38:24.920Z,21.20
2023-05-13T10:48:40.300Z,21.50
2023-05-13T10:53:37.318Z,20.97
2023-05-13T10:58:31.465Z,21.25
2023-05-13T11:03:32.243Z,21.15
2023-05-13T11:08:39.407Z,20.65
2023-05-13T11:13:39.035Z,20.57
2023-05-13T11:18:40.438Z,21.05
2023-05-13T11:23:35.948Z,20.97
2023-05-13T11:28:56.938Z,20.92
2023-05-13T11:34:14.581Z,21.25
2023-05-13T11:39:11.344Z,21.31
2023-05-13T11:44:06.809Z,21.09
2023-05-13T11:49:01.943Z,21.15
2023-05-13T11:54:03.086Z,21.71
2023-05-13T11:58:56.920Z,21.39
2023-05-13T12:04:03.160Z,22.00
2023-05-13T12:08:56.821Z,22.78
2023-05-13T12:13:52.912Z,23.62
2023-05-13T12:18:57.791Z,23.43
2023-05-13T12:23:51.094Z,22.32
2023-05-13T12:28:44.397Z,23.40
2023-05-13T12:33:46.955Z,23.67
2023-05-13T12:38:40.177Z,24.27
2023-05-13T12:43:37.240Z,25.75
2023-05-13T12:48:30.452Z,26.77
2023-05-13T12:53:25.122Z,27.83
2023-05-13T12:58:18.411Z,29.21
2023-05-13T13:03:13.035Z,29.04
2023-05-13T13:08:06.830Z,29.70
2023-05-13T13:13:01.584Z,29.86
2023-05-13T13:17:54.754Z,30.20
2023-05-13T13:22:49.715Z,30.59
2023-05-13T13:27:44.156Z,30.80
2023-05-13T13:32:39.269Z,30.78
2023-05-13T13:37:32.557Z,30.81
2023-05-13T13:42:40.280Z,30.64
2023-05-13T13:47:36.416Z,30.38
2023-05-13T13:52:31.190Z,30.27
2023-05-13T13:57:24.673Z,30.45
2023-05-13T14:02:18.746Z,30.44
2023-05-13T14:07:12.352Z,30.02
2023-05-13T14:12:08.133Z,29.94
2023-05-13T14:17:01.444Z,29.18
2023-05-13T14:21:54.655Z,29.87
2023-05-13T14:26:48.051Z,28.87
2023-05-13T14:31:49.426Z,28.00
2023-05-13T14:36:42.761Z,25.61
2023-05-13T14:41:36.082Z,24.85
2023-05-13T14:46:29.519Z,23.75
2023-05-13T14:51:24.194Z,22.33
2023-05-13T14:56:17.597Z,22.47
2023-05-13T15:01:10.912Z,22.26
2023-05-13T15:06:04.757Z,22.02
2023-05-13T15:11:01.079Z,20.93
2023-05-13T15:15:57.248Z,21.08
2023-05-13T15:20:52.960Z,19.99
2023-05-13T15:25:48.462Z,21.03
2023-05-13T15:30:43.323Z,20.89
2023-05-13T15:35:36.889Z,20.84
2023-05-13T15:40:33.208Z,20.75
2023-05-13T15:45:26.535Z,20.76
2023-05-13T15:50:21.459Z,20.66
2023-05-13T15:55:20.637Z,20.11
2023-05-13T16:00:16.754Z,20.55
2023-05-13T16:05:12.288Z,20.30
2023-05-13T16:10:11.069Z,19.32
2023-05-13T16:15:05.026Z,20.33
2023-05-13T16:19:59.959Z,20.25
2023-05-13T16:24:53.826Z,19.08
2023-05-13T16:29:48.739Z,19.35
2023-05-13T16:34:45.038Z,19.82
2023-05-13T16:39:39.741Z,19.95
2023-05-13T16:44:33.132Z,19.64
2023-05-13T16:49:27.882Z,19.74
2023-05-13T16:54:21.365Z,19.40
2023-05-13T16:59:23.196Z,19.14
2023-05-13T17:04:18.823Z,18.89
2023-05-13T17:09:16.390Z,19.00
2023-05-13T17:14:09.628Z,19.20
2023-05-13T17:19:03.075Z,18.99
2023-05-13T17:23:56.183Z,18.70
2023-05-13T17:28:52.384Z,18.65
2023-05-13T17:33:45.701Z,18.56
2023-05-13T17:38:39.489Z,18.24
2023-05-13T17:43:32.718Z,18.24
2023-05-13T17:48:29.533Z,18.11
2023-05-13T17:53:23.327Z,17.95
2023-05-13T17:58:16.694Z,17.62
2023-05-13T18:03:09.988Z,17.09
2023-05-13T18:08:04.689Z,17.56
2023-05-13T18:12:57.967Z,17.43
2023-05-13T18:17:51.543Z,17.34
2023-05-13T18:22:44.669Z,17.12
2023-05-13T18:27:39.461Z,16.85
2023-05-13T18:32:32.607Z,16.94
2023-05-13T18:37:27.749Z,15.93
2023-05-13T18:42:21.076Z,16.88
2023-05-13T18:47:15.625Z,16.22
2023-05-13T18:52:08.979Z,16.73
2023-05-13T18:57:02.307Z,16.49
2023-05-13T19:01:55.791Z,16.35
2023-05-13T19:06:53.184Z,16.05
2023-05-13T19:11:46.415Z,16.06
2023-05-13T19:16:39.746Z,16.29
2023-05-13T19:21:33.797Z,15.07
2023-05-13T19:26:31.224Z,16.01
2023-05-13T19:31:27.037Z,16.08
2023-05-13T19:36:23.881Z,16.07
2023-05-13T19:41:17.280Z,15.82
2023-05-13T19:46:12.606Z,15.02
2023-05-13T19:51:05.868Z,15.75
2023-05-13T19:56:10.533Z,15.50
2023-05-13T20:01:03.902Z,15.22
2023-05-13T20:05:58.605Z,14.85
2023-05-13T20:10:52.333Z,15.52
2023-05-13T20:15:48.658Z,15.47
2023-05-13T20:20:42.674Z,15.24
2023-05-13T20:25:38.499Z,14.16
2023-05-13T20:30:32.185Z,14.79
2023-05-13T20:35:29.355Z,14.51
2023-05-13T20:40:25.496Z,14.76
2023-05-13T20:45:20.744Z,14.13
2023-05-13T20:50:16.992Z,13.97
2023-05-13T20:55:11.245Z,14.72
2023-05-13T21:00:05.199Z,14.70
2023-05-13T21:04:59.956Z,14.00
2023-05-13T21:09:53.375Z,14.59
2023-05-13T21:14:46.666Z,14.24
2023-05-13T21:19:39.896Z,14.55
2023-05-13T21:24:34.389Z,14.23
2023-05-13T21:29:30.194Z,14.33
2023-05-13T21:34:23.294Z,14.14
2023-05-13T21:39:16.474Z,14.20
2023-05-13T21:44:11.290Z,14.23
2023-05-13T21:49:04.634Z,14.01
2023-05-13T21:53:57.896Z,13.42
2023-05-13T21:58:53.030Z,13.65
2023-05-13T22:03:47.608Z,13.31
2023-05-13T22:08:43.297Z,13.11
2023-05-13T22:13:36.535Z,13.02
2023-05-13T22:18:29.791Z,12.90
2023-05-13T22:23:31.086Z,12.83
2023-05-13T22:28:25.087Z,12.79
2023-05-13T22:33:22.158Z,12.52
2023-05-13T22:38:17.461Z,12.33
2023-05-13T22:43:12.007Z,12.20
2023-05-13T22:48:05.560Z,12.34
2023-05-13T22:52:58.842Z,11.83
2023-05-13T22:57:51.967Z,12.00
2023-05-13T23:02:48.556Z,11.93
2023-05-13T23:07:41.813Z,11.98
2023-05-13T23:12:35.049Z,12.05
2023-05-13T23:17:28.302Z,11.34
2023-05-13T23:22:22.957Z,11.85
2023-05-13T23:27:16.136Z,11.56
2023-05-13T23:32:09.663Z,11.18
2023-05-13T23:37:03.025Z,11.48
2023-05-13T23:41:57.652Z,11.23
2023-05-13T23:46:51.310Z,11.64
2023-05-13T23:51:44.624Z,10.80
2023-05-13T23:56:37.883Z,11.60
